Time;durP1;ratioP1;P1;durP2;ratioP2;P2;SDS_P1;SDS_P2;PMS_P1;PMS_P2;Temp;Humidity;BMP_temperature;BMP_pressure;BME280_temperature;BME280_humidity;BME280_pressure;Samples;Min_cycle;Max_cycle;Signal;HPM_P1;HPM_P2
2023/05/01 00:01:53;;;;;;;7.23;4.00;;;12.50;59.70;;;15.15;44.08;101904.53;5095383;28;20275;-63
2023/05/01 00:04:21;;;;;;;11.47;5.63;;;12.50;59.60;;;15.13;44.12;101893.28;5110118;28;20216;-63
2023/05/01 00:06:48;;;;;;;6.17;4.40;;;12.50;59.70;;;15.11;44.23;101897.94;5115633;28;20208;-64
2023/05/01 00:09:15;;;;;;;5.47;4.10;;;12.50;59.60;;;15.08;44.21;101888.50;5111920;28;20545;-61
2023/05/01 00:11:42;;;;;;;7.10;4.70;;;12.40;59.70;;;15.05;44.36;101888.06;5095843;28;20197;-62
2023/05/01 00:14:09;;;;;;;6.37;4.87;;;12.40;59.50;;;15.03;44.13;101882.06;5109720;28;20745;-62
2023/05/01 00:16:36;;;;;;;8.03;4.70;;;12.40;59.60;;;15.00;44.07;101874.50;5110049;28;20196;-63
2023/05/01 00:19:04;;;;;;;7.37;4.80;;;12.30;59.40;;;14.95;43.92;101874.19;5100881;28;20192;-62
2023/05/01 00:21:31;;;;;;;7.43;4.83;;;12.30;59.30;;;14.91;44.17;101877.16;5114938;28;20214;-65
2023/05/01 00:23:58;;;;;;;8.07;4.70;;;12.30;59.50;;;14.89;44.17;101873.88;5101740;28;20205;-65
2023/05/01 00:26:29;;;;;;;4.83;4.20;;;12.30;59.80;;;14.87;44.20;101869.75;5095099;28;20642;-63
2023/05/01 00:28:57;;;;;;;7.03;5.37;;;12.20;59.70;;;14.84;44.22;101870.91;5094851;28;20238;-63
2023/05/01 00:31:24;;;;;;;7.50;4.90;;;12.20;59.90;;;14.82;44.31;101870.28;5094486;28;20188;-64
2023/05/01 00:33:52;;;;;;;5.57;4.47;;;12.20;59.90;;;14.82;44.26;101869.44;5094577;28;20207;-62
2023/05/01 00:36:20;;;;;;;7.60;4.10;;;12.20;60.00;;;14.82;44.46;101864.97;5109487;28;20194;-62
2023/05/01 00:38:47;;;;;;;6.37;5.00;;;12.20;60.10;;;14.83;44.20;101868.47;5114755;28;20188;-62
2023/05/01 00:41:14;;;;;;;6.87;4.70;;;12.20;59.90;;;14.82;44.50;101856.19;5094395;28;20193;-62
2023/05/01 00:43:41;;;;;;;7.23;5.10;;;12.20;60.00;;;14.81;44.33;101858.00;5086586;28;20408;-63
2023/05/01 00:46:08;;;;;;;7.73;5.07;;;12.20;60.00;;;14.80;44.15;101861.69;5115370;28;20204;-63
2023/05/01 00:48:36;;;;;;;6.63;4.93;;;12.10;59.70;;;14.79;44.44;101856.53;5096458;28;20603;-64
2023/05/01 00:51:07;;;;;;;5.57;4.27;;;12.10;59.80;;;14.75;44.31;101853.41;5113035;28;20655;-60
2023/05/01 00:53:35;;;;;;;6.33;4.70;;;12.10;60.00;;;14.73;44.26;101852.78;5106040;28;20189;-64
2023/05/01 00:56:03;;;;;;;5.77;4.47;;;12.10;59.90;;;14.71;44.42;101852.09;5075423;28;20221;-62
2023/05/01 00:58:30;;;;;;;8.03;4.93;;;12.10;60.10;;;14.71;44.59;101840.69;5087488;28;20193;-63
2023/05/01 01:00:57;;;;;;;5.43;4.50;;;12.10;60.60;;;14.73;44.68;101847.47;5094312;28;20200;-62
2023/05/01 01:03:24;;;;;;;6.97;4.50;;;12.10;60.40;;;14.74;44.31;101843.81;5100439;28;20297;-63
2023/05/01 01:06:00;;;;;;;6.90;4.67;;;12.10;60.10;;;14.72;44.20;101840.50;5107470;28;20228;-64
2023/05/01 01:08:37;;;;;;;5.63;4.63;;;12.10;60.00;;;14.70;44.15;101841.69;5094955;28;20235;-64
2023/05/01 01:11:20;;;;;;;5.73;4.70;;;12.00;59.90;;;14.66;44.04;101835.91;5094042;28;20556;-63
2023/05/01 01:14:02;;;;;;;6.40;4.53;;;12.00;59.80;;;14.64;44.06;101832.59;5102565;28;20192;-64
2023/05/01 01:16:40;;;;;;;6.63;4.53;;;12.00;59.60;;;14.60;44.00;101831.28;5074009;28;20182;-62
2023/05/01 01:19:52;;;;;;;8.47;4.70;;;12.00;59.60;;;14.57;44.09;101831.63;5073770;28;20216;-63
2023/05/01 01:22:26;;;;;;;6.23;4.20;;;12.00;59.70;;;14.54;44.10;101828.53;5074811;28;20213;-63
2023/05/01 01:25:42;;;;;;;6.77;4.37;;;11.90;59.70;;;14.47;44.21;101825.75;5094046;28;20212;-63
2023/05/01 01:28:29;;;;;;;5.97;4.00;;;11.90;59.50;;;14.45;44.31;101826.91;5042068;28;20221;-60
2023/05/01 01:31:16;;;;;;;5.23;4.20;;;11.90;59.80;;;14.44;44.36;101823.44;5093212;28;20173;-62
2023/05/01 01:34:01;;;;;;;7.80;4.10;;;11.80;59.70;;;14.42;44.33;101812.19;5103957;28;20283;-61
2023/05/01 01:36:39;;;;;;;6.20;4.47;;;11.80;59.50;;;14.43;44.59;101813.81;5114057;28;20184;-63
2023/05/01 01:39:25;;;;;;;6.30;4.60;;;11.80;60.00;;;14.42;44.36;101812.19;5109487;28;20180;-63
2023/05/01 01:41:56;;;;;;;7.40;4.67;;;11.80;59.60;;;14.43;44.06;101805.06;5076200;28;20203;-62
2023/05/01 01:44:33;;;;;;;7.20;4.40;;;11.80;59.40;;;14.40;44.74;101806.25;5091513;28;20212;-63
2023/05/01 01:47:07;;;;;;;6.13;4.60;;;11.80;59.80;;;14.40;44.17;101798.28;5114018;28;20215;-62
2023/05/01 01:49:41;;;;;;;8.63;4.50;;;11.80;59.80;;;14.39;44.25;101790.50;5113783;28;20172;-60
2023/05/01 01:52:13;;;;;;;7.33;3.90;;;11.80;59.80;;;14.38;44.11;101794.16;5113223;28;20206;-64
2023/05/01 01:54:47;;;;;;;5.57;4.00;;;11.70;59.40;;;14.35;44.03;101790.03;5091705;28;20264;-62
2023/05/01 01:57:18;;;;;;;5.07;4.30;;;11.70;59.40;;;14.34;43.88;101788.38;5113832;28;20267;-62
2023/05/01 01:59:47;;;;;;;5.90;4.60;;;11.70;59.30;;;14.31;43.83;101783.41;5078791;28;20585;-62
2023/05/01 02:02:18;;;;;;;6.97;4.33;;;11.70;59.20;;;14.30;43.53;101781.78;5112908;28;20188;-62
2023/05/01 02:04:49;;;;;;;8.30;4.53;;;11.60;58.70;;;14.27;43.32;101771.50;5112046;28;20211;-65
2023/05/01 02:07:19;;;;;;;6.83;4.33;;;11.60;58.50;;;14.24;43.36;101771.84;5093647;28;20200;-62
2023/05/01 02:09:49;;;;;;;7.17;4.53;;;11.60;58.50;;;14.22;43.28;101768.53;5093093;28;20192;-63
2023/05/01 02:12:18;;;;;;;6.87;3.77;;;11.50;58.30;;;14.19;43.21;101769.72;5075999;28;20649;-63
2023/05/01 02:14:50;;;;;;;6.30;4.43;;;11.50;58.30;;;14.18;43.14;101772.53;5113167;28;20544;-63
2023/05/01 02:17:20;;;;;;;5.37;4.13;;;11.50;58.40;;;14.16;43.10;101759.47;5078559;28;20602;-62
2023/05/01 02:19:52;;;;;;;5.20;4.17;;;11.40;58.20;;;14.16;42.92;101763.94;5081926;28;20184;-62
2023/05/01 02:22:21;;;;;;;8.20;4.77;;;11.50;58.30;;;14.17;42.75;101760.28;5093461;28;20549;-62
2023/05/01 02:24:49;;;;;;;5.13;4.00;;;11.40;58.00;;;14.17;42.76;101760.28;5072219;28;20201;-61
2023/05/01 02:27:22;;;;;;;5.67;3.90;;;11.40;57.80;;;14.15;42.70;101759.63;5060652;28;20204;-60
2023/05/01 02:29:51;;;;;;;5.67;3.93;;;11.40;57.60;;;14.14;42.48;101750.84;5096933;28;20506;-63
2023/05/01 02:32:18;;;;;;;7.67;4.37;;;11.40;57.50;;;14.14;42.37;101753.50;5100081;28;20214;-63
2023/05/01 02:34:45;;;;;;;5.70;4.17;;;11.40;57.60;;;14.15;42.43;101759.63;5116601;28;20557;-63
2023/05/01 02:37:14;;;;;;;4.53;3.70;;;11.40;57.50;;;14.16;42.36;101748.06;5117086;28;20188;-62
2023/05/01 02:39:42;;;;;;;10.83;4.30;;;11.40;57.20;;;14.16;42.22;101748.06;5109497;28;20204;-63
2023/05/01 02:42:11;;;;;;;6.93;3.53;;;11.40;57.00;;;14.17;42.15;101741.75;5078782;28;20258;-64
2023/05/01 02:44:46;;;;;;;7.87;3.77;;;11.40;57.00;;;14.15;41.85;101734.00;5112409;28;20219;-60
2023/05/01 02:47:19;;;;;;;5.23;4.20;;;11.40;56.70;;;14.15;41.85;101741.94;5117353;28;20187;-59
2023/05/01 02:49:47;;;;;;;3.90;3.50;;;11.40;56.60;;;14.16;41.84;101737.47;5079664;28;20188;-62
2023/05/01 02:52:19;;;;;;;7.80;3.63;;;11.50;56.60;;;14.17;41.92;101747.03;5096788;28;20283;-63
2023/05/01 02:54:46;;;;;;;6.23;3.27;;;11.50;56.50;;;14.18;41.75;101731.00;5095082;28;20220;-61
2023/05/01 02:57:15;;;;;;;4.57;3.30;;;11.50;56.30;;;14.19;41.31;101726.53;5076418;28;20561;-63
2023/05/01 02:59:43;;;;;;;7.40;4.47;;;11.50;55.90;;;14.18;41.36;101714.28;5077268;28;20724;-60
2023/05/01 03:02:10;;;;;;;6.33;3.90;;;11.50;55.90;;;14.18;41.09;101715.13;5086769;28;20714;-62
2023/05/01 03:04:37;;;;;;;6.93;4.13;;;11.50;55.80;;;14.18;41.33;101712.47;5111877;28;20241;-63
2023/05/01 03:07:04;;;;;;;6.77;4.23;;;11.50;55.80;;;14.20;41.32;101701.69;5096943;28;20205;-63
2023/05/01 03:09:32;;;;;;;7.30;4.03;;;11.50;55.90;;;14.21;41.28;101706.00;5096751;28;20196;-61
2023/05/01 03:12:00;;;;;;;5.83;3.80;;;11.50;55.80;;;14.21;41.37;101703.34;5096904;28;20264;-63
2023/05/01 03:14:27;;;;;;;7.80;4.30;;;11.50;55.90;;;14.21;41.32;101698.84;5110289;28;20249;-62
2023/05/01 03:16:54;;;;;;;6.47;3.40;;;11.50;55.70;;;14.21;41.25;101693.56;5097341;28;20192;-62
2023/05/01 03:19:21;;;;;;;5.03;3.37;;;11.50;55.50;;;14.19;41.01;101690.28;5095956;28;20216;-63
2023/05/01 03:21:48;;;;;;;5.23;3.70;;;11.50;55.40;;;14.17;40.99;101686.97;5094480;28;20189;-62
2023/05/01 03:24:15;;;;;;;6.50;4.67;;;11.50;55.40;;;14.17;41.29;101691.44;5107067;28;20211;-64
2023/05/01 03:26:43;;;;;;;4.00;2.90;;;11.50;55.60;;;14.17;41.03;101688.78;5116346;28;20187;-62
2023/05/01 03:29:12;;;;;;;4.90;3.33;;;11.40;56.00;;;14.15;41.26;101677.56;5106778;28;20191;-63
2023/05/01 03:31:39;;;;;;;6.03;3.73;;;11.40;55.70;;;14.17;41.12;101680.84;5108657;28;20557;-62
2023/05/01 03:34:06;;;;;;;6.67;3.50;;;11.50;55.70;;;14.18;41.11;101680.69;5105714;28;20194;-59
2023/05/01 03:36:33;;;;;;;6.47;3.73;;;11.50;55.70;;;14.20;40.99;101677.84;5097838;28;20226;-61
2023/05/01 03:39:00;;;;;;;4.70;3.60;;;11.50;55.40;;;14.14;40.72;101674.06;5114282;28;20215;-61
2023/05/01 03:41:27;;;;;;;4.97;3.77;;;11.50;55.00;;;14.11;40.78;101671.81;5097840;28;20203;-63
2023/05/01 03:43:55;;;;;;;4.90;3.53;;;11.50;55.10;;;14.09;40.81;101676.44;5104642;28;20559;-63
2023/05/01 03:46:22;;;;;;;5.70;3.23;;;11.40;55.00;;;14.07;40.90;101673.13;5095667;28;20661;-63
2023/05/01 03:48:49;;;;;;;5.83;3.33;;;11.40;55.20;;;14.06;40.99;101662.72;5095974;28;20180;-62
2023/05/01 03:51:16;;;;;;;4.70;3.17;;;11.40;55.30;;;14.05;40.91;101661.88;5095634;28;20223;-63
2023/05/01 03:53:44;;;;;;;6.83;4.03;;;11.40;55.20;;;14.04;40.93;101662.06;5102328;28;20199;-63
2023/05/01 03:56:11;;;;;;;6.60;3.80;;;11.40;55.30;;;14.00;40.68;101655.50;5091176;28;20247;-63
2023/05/01 03:58:37;;;;;;;7.37;3.47;;;11.30;55.00;;;13.98;40.92;101654.81;5115722;28;20265;-62
2023/05/01 04:01:06;;;;;;;7.60;3.97;;;11.30;55.20;;;13.95;41.10;101649.91;5114419;28;20195;-62
2023/05/01 04:03:33;;;;;;;5.80;4.10;;;11.30;55.30;;;13.92;41.02;101655.53;5099849;28;20656;-63
2023/05/01 04:06:00;;;;;;;9.53;3.83;;;11.30;55.30;;;13.92;41.10;101655.53;5097217;28;20311;-63
2023/05/01 04:08:27;;;;;;;6.53;4.20;;;11.30;55.30;;;13.88;41.21;101652.38;5115631;28;20188;-62
2023/05/01 04:10:54;;;;;;;8.63;4.77;;;11.30;55.60;;;13.89;41.31;101655.88;5114943;28;20533;-60
2023/05/01 04:13:21;;;;;;;8.33;4.10;;;11.20;55.80;;;13.89;41.18;101656.69;5113560;28;20241;-63
2023/05/01 04:15:48;;;;;;;7.17;3.53;;;11.20;55.50;;;13.92;41.31;101652.88;5097226;28;20212;-62
2023/05/01 04:18:16;;;;;;;5.80;4.40;;;11.30;56.40;;;13.88;41.20;101652.38;5096684;28;20287;-63
2023/05/01 04:20:43;;;;;;;7.53;4.20;;;11.30;55.50;;;13.84;41.07;101658.19;5094934;28;20184;-62
2023/05/01 04:23:11;;;;;;;8.37;5.17;;;11.30;55.30;;;13.80;41.24;101651.63;5099322;28;20572;-62
2023/05/01 04:25:38;;;;;;;7.47;4.63;;;11.20;55.40;;;13.76;41.43;101651.16;5094275;28;20208;-63
2023/05/01 04:28:05;;;;;;;6.13;4.67;;;11.20;55.50;;;13.77;41.38;101654.59;5081731;28;20222;-64
2023/05/01 04:30:32;;;;;;;5.77;4.37;;;11.20;55.50;;;13.73;41.38;101651.47;5094689;28;20193;-62
2023/05/01 04:33:00;;;;;;;9.30;4.27;;;11.20;55.50;;;13.70;41.46;101661.56;5094195;28;20203;-62
2023/05/01 04:35:29;;;;;;;8.53;4.53;;;11.10;55.40;;;13.60;41.83;101650.41;5073984;28;20213;-59
2023/05/01 04:37:55;;;;;;;6.17;3.70;;;11.10;55.60;;;13.57;41.80;101646.28;5108582;28;20223;-63
2023/05/01 04:40:22;;;;;;;8.60;4.23;;;11.10;55.70;;;13.58;41.91;101640.78;5101396;28;20556;-63
2023/05/01 04:42:49;;;;;;;5.93;4.33;;;11.00;55.70;;;13.56;41.98;101636.69;5076473;28;20226;-63
2023/05/01 04:45:16;;;;;;;6.67;3.73;;;11.00;55.80;;;13.48;41.90;101632.22;5111959;28;20215;-62
2023/05/01 04:47:43;;;;;;;7.80;4.50;;;11.00;55.70;;;13.46;42.00;101634.22;5096372;28;20199;-63
2023/05/01 04:50:11;;;;;;;7.10;4.03;;;11.00;55.80;;;13.43;41.91;101629.28;5108227;28;20200;-64
2023/05/01 04:52:39;;;;;;;5.67;3.93;;;11.00;55.90;;;13.42;41.98;101632.94;5076435;28;20678;-62
2023/05/01 04:55:08;;;;;;;7.37;3.97;;;10.90;55.80;;;13.46;42.06;101630.75;5087840;28;20224;-61
2023/05/01 04:57:35;;;;;;;4.13;3.40;;;10.90;56.00;;;13.50;42.29;101629.44;5092898;28;20664;-60
2023/05/01 05:00:03;;;;;;;5.60;3.70;;;10.90;56.20;;;13.55;41.99;101627.91;5093912;28;20219;-62
2023/05/01 05:02:30;;;;;;;6.03;4.30;;;11.00;56.20;;;13.63;42.17;101623.56;5093565;28;20576;-64
2023/05/01 05:04:58;;;;;;;5.67;3.57;;;11.00;56.40;;;13.73;41.97;101618.91;5095137;28;20232;-60
2023/05/01 05:07:24;;;;;;;8.43;3.70;;;11.00;56.40;;;13.82;41.61;101623.16;5094115;28;20192;-61
2023/05/01 05:09:53;;;;;;;5.40;4.30;;;11.10;56.30;;;13.90;41.61;101625.75;5089114;28;20201;-62
2023/05/01 05:12:20;;;;;;;6.10;4.00;;;11.10;56.50;;;14.00;41.77;101621.09;5073923;28;20231;-63
2023/05/01 05:14:47;;;;;;;6.63;4.00;;;11.20;56.40;;;14.04;41.39;101617.06;5087393;28;20208;-62
2023/05/01 05:17:14;;;;;;;5.57;4.43;;;11.20;56.00;;;14.09;41.18;101625.31;5098686;28;20199;-63
2023/05/01 05:19:41;;;;;;;5.73;3.87;;;11.30;55.90;;;14.15;41.12;101619.31;5114245;28;20220;-60
2023/05/01 05:22:08;;;;;;;8.20;4.53;;;11.30;55.90;;;14.23;41.26;101621.91;5096395;28;20532;-61
2023/05/01 05:24:35;;;;;;;6.40;3.80;;;11.40;56.10;;;14.29;40.90;101623.03;5094500;28;20578;-65
2023/05/01 05:27:05;;;;;;;9.40;4.70;;;11.50;55.70;;;14.37;40.87;101617.69;5114478;28;20233;-61
2023/05/01 05:29:33;;;;;;;4.73;3.77;;;11.60;55.90;;;14.44;40.76;101618.63;5095177;28;20173;-62
2023/05/01 05:32:00;;;;;;;4.87;4.20;;;11.60;55.60;;;14.45;40.10;101615.00;5100378;28;20215;-61
2023/05/01 05:34:28;;;;;;;6.97;4.53;;;11.60;54.50;;;14.46;40.02;101617.47;5094141;28;20615;-63
2023/05/01 05:36:54;;;;;;;6.90;4.57;;;11.70;54.30;;;14.46;39.88;101612.16;5093695;28;20561;-64
2023/05/01 05:39:22;;;;;;;6.40;4.40;;;11.70;53.90;;;14.48;39.73;101610.16;5093789;28;20220;-64
2023/05/01 05:41:52;;;;;;;6.97;4.50;;;11.80;53.80;;;14.49;39.74;101606.50;5093843;28;20216;-61
2023/05/01 05:44:20;;;;;;;6.90;4.20;;;11.80;53.80;;;14.54;39.68;101601.50;5107395;28;20215;-61
2023/05/01 05:46:47;;;;;;;9.20;3.97;;;11.80;53.70;;;14.53;39.93;101599.00;5093805;28;20245;-64
2023/05/01 05:49:14;;;;;;;6.90;4.50;;;11.90;53.70;;;14.54;39.59;101598.84;5075467;28;20676;-60
2023/05/01 05:51:41;;;;;;;7.63;4.80;;;11.90;53.50;;;14.60;39.68;101598.13;5093413;28;20185;-62
2023/05/01 05:54:08;;;;;;;10.43;4.20;;;12.00;53.60;;;14.64;39.50;101599.41;5103195;28;20246;-63
2023/05/01 05:56:35;;;;;;;5.80;4.47;;;12.00;53.30;;;14.70;39.37;101604.00;5073128;28;20197;-60
2023/05/01 05:59:03;;;;;;;7.13;4.33;;;12.00;53.20;;;14.62;39.28;101595.31;5105600;28;20680;-62
2023/05/01 06:01:31;;;;;;;5.47;4.13;;;12.10;52.90;;;14.67;39.25;101599.06;5117508;28;20241;-62
2023/05/01 06:03:58;;;;;;;6.53;3.90;;;12.10;52.90;;;14.79;39.00;101587.00;5098561;28;20196;-63
2023/05/01 06:06:26;;;;;;;5.40;3.97;;;12.10;52.90;;;14.93;39.15;101588.84;5098163;28;20204;-64
2023/05/01 06:08:53;;;;;;;7.67;3.90;;;12.20;53.00;;;15.13;38.71;101588.31;5079445;28;20199;-63
2023/05/01 06:11:20;;;;;;;8.70;4.37;;;12.30;53.20;;;15.27;38.29;101584.81;5102917;28;20648;-64
2023/05/01 06:13:47;;;;;;;6.43;3.97;;;12.40;52.50;;;15.32;38.02;101588.59;5097778;28;20200;-63
2023/05/01 06:16:14;;;;;;;7.60;4.13;;;12.50;51.90;;;15.33;38.16;101586.75;5117613;28;20198;-65
2023/05/01 06:18:43;;;;;;;7.07;3.60;;;12.60;52.00;;;15.37;37.97;101580.06;5099134;28;20226;-63
2023/05/01 06:21:12;;;;;;;5.63;4.20;;;12.60;51.70;;;15.46;38.09;101584.28;5117775;28;20271;-63
2023/05/01 06:23:39;;;;;;;6.07;3.90;;;12.70;51.90;;;15.52;38.28;101580.91;5117254;28;20258;-63
2023/05/01 06:26:06;;;;;;;5.63;4.27;;;12.70;51.70;;;15.57;38.06;101581.97;5102011;28;20212;-61
2023/05/01 06:28:33;;;;;;;5.97;4.07;;;12.80;51.90;;;15.70;37.79;101581.31;5062870;28;20211;-64
2023/05/01 06:31:00;;;;;;;6.33;4.17;;;12.90;52.00;;;15.86;37.95;101582.91;5097275;28;20203;-64
2023/05/01 06:33:27;;;;;;;8.83;4.63;;;12.90;51.70;;;15.95;37.29;101582.59;5109054;28;20215;-64
2023/05/01 06:35:58;;;;;;;6.90;3.50;;;13.00;51.60;;;16.08;37.26;101569.47;5111242;28;20271;-64
2023/05/01 06:38:25;;;;;;;6.97;3.83;;;13.10;51.70;;;16.13;37.19;101575.03;5102829;28;20267;-62
2023/05/01 06:40:53;;;;;;;6.00;3.80;;;13.20;51.30;;;16.23;37.26;101569.41;5082251;28;20614;-62
2023/05/01 06:43:20;;;;;;;6.97;3.93;;;13.30;51.30;;;16.33;36.99;101577.06;5090113;28;20203;-62
2023/05/01 06:45:47;;;;;;;6.40;4.03;;;13.40;51.10;;;16.39;36.97;101566.47;5117476;28;20211;-64
2023/05/01 06:48:13;;;;;;;5.30;3.67;;;13.50;51.10;;;16.43;36.57;101572.22;5116920;28;20660;-61
2023/05/01 06:50:40;;;;;;;7.77;4.07;;;13.60;50.80;;;16.46;36.76;101556.72;5090410;28;20200;-64
2023/05/01 06:53:09;;;;;;;6.27;3.47;;;13.60;50.60;;;16.55;36.67;101562.72;5084122;28;20204;-63
2023/05/01 06:55:36;;;;;;;4.13;3.40;;;13.70;50.70;;;16.63;37.08;101563.44;5080991;28;20232;-67
2023/05/01 06:58:03;;;;;;;5.10;3.97;;;13.70;50.60;;;16.70;36.40;101558.97;5076493;28;20215;-62
2023/05/01 07:00:49;;;;;;;4.73;3.50;;;13.80;50.50;;;16.77;36.51;101551.03;5076507;28;20588;-61
2023/05/01 07:03:16;;;;;;;4.30;3.90;;;13.90;50.70;;;16.89;36.65;101552.13;5096706;28;20210;-65
2023/05/01 07:05:43;;;;;;;5.07;3.43;;;13.90;50.70;;;17.04;36.57;101552.84;5109470;28;20261;-64
2023/05/01 07:08:13;;;;;;;6.90;4.20;;;14.00;50.70;;;17.19;36.19;101542.06;5078398;28;20665;-62
2023/05/01 07:10:40;;;;;;;8.90;4.20;;;14.10;50.20;;;17.23;36.23;101543.31;5095733;28;20200;-62
2023/05/01 07:13:08;;;;;;;7.47;3.83;;;14.20;50.10;;;17.29;36.09;101542.50;5105318;28;20246;-64
2023/05/01 07:15:36;;;;;;;5.57;3.77;;;14.30;50.00;;;17.38;36.02;101541.31;5098343;28;20303;-63
2023/05/01 07:18:04;;;;;;;6.37;3.60;;;14.40;49.80;;;17.53;35.76;101544.69;5116859;28;20733;-60
2023/05/01 07:20:33;;;;;;;5.50;3.70;;;14.50;50.50;;;17.63;35.73;101539.81;5099300;28;20201;-64
2023/05/01 07:23:00;;;;;;;6.30;3.90;;;14.60;49.80;;;17.73;35.58;101539.44;5104118;28;20195;-63
2023/05/01 07:25:28;;;;;;;6.03;3.30;;;14.70;49.60;;;17.82;35.19;101532.88;5084430;28;20224;-64
2023/05/01 07:27:55;;;;;;;7.07;4.10;;;14.80;49.20;;;17.70;35.34;101540.66;5089104;28;20729;-63
2023/05/01 07:30:23;;;;;;;5.47;3.50;;;14.80;48.40;;;17.71;35.41;101533.47;5075880;28;20267;-63
2023/05/01 07:32:50;;;;;;;6.60;4.00;;;14.90;48.50;;;17.76;35.41;101528.38;5078599;28;20201;-63
2023/05/01 07:35:17;;;;;;;6.47;3.80;;;15.00;48.50;;;17.71;35.53;101526.28;5095558;28;20216;-63
2023/05/01 07:37:44;;;;;;;6.00;3.50;;;15.00;48.40;;;17.80;35.57;101526.94;5096048;28;20210;-62
2023/05/01 07:40:11;;;;;;;6.67;3.80;;;15.00;48.90;;;18.29;34.99;101524.72;5096183;28;20279;-65
2023/05/01 07:42:39;;;;;;;5.17;3.40;;;15.20;49.00;;;19.17;34.22;101523.34;5096171;28;20192;-62
2023/05/01 07:45:08;;;;;;;4.63;3.43;;;15.40;49.10;;;20.23;33.06;101515.34;5074121;28;20216;-63
2023/05/01 07:47:35;;;;;;;6.57;3.77;;;15.90;48.40;;;21.18;29.80;101519.31;5075860;28;20197;-63
2023/05/01 07:50:03;;;;;;;3.70;3.20;;;16.50;45.50;;;22.02;29.78;101515.69;5076135;28;20243;-64
2023/05/01 07:52:30;;;;;;;4.97;3.20;;;17.10;45.00;;;22.92;28.11;101516.19;5065221;28;20223;-63
2023/05/01 07:54:57;;;;;;;4.67;3.10;;;17.80;42.90;;;23.72;26.87;101506.22;5085682;28;20213;-64
2023/05/01 07:57:24;;;;;;;5.17;3.70;;;18.50;41.50;;;24.04;26.28;101505.44;5076171;28;20224;-64
2023/05/01 07:59:55;;;;;;;4.23;3.50;;;19.10;39.20;;;24.78;26.13;101506.84;5089695;28;20295;-62
2023/05/01 08:02:22;;;;;;;4.90;3.13;;;19.70;39.50;;;25.67;24.54;101503.84;5116317;28;20230;-63
2023/05/01 08:04:50;;;;;;;5.10;4.10;;;20.30;38.10;;;26.35;22.93;101503.91;5097756;28;20219;-62
2023/05/01 08:07:17;;;;;;;3.57;3.27;;;20.90;35.10;;;26.66;22.92;101496.78;5097480;28;20248;-62
2023/05/01 08:09:45;;;;;;;5.63;3.30;;;21.50;34.00;;;26.85;23.06;101496.09;5108235;28;20653;-64
2023/05/01 08:12:12;;;;;;;7.40;4.03;;;21.90;33.40;;;27.09;22.43;101498.34;5101762;28;20184;-63
2023/05/01 08:14:39;;;;;;;5.53;3.70;;;22.20;32.10;;;27.15;22.76;101489.16;5095261;28;20204;-63
2023/05/01 08:17:07;;;;;;;3.80;3.17;;;22.50;32.30;;;27.37;21.51;101492.47;5095130;28;20192;-62
2023/05/01 08:19:34;;;;;;;7.17;3.30;;;22.70;30.50;;;27.51;21.86;101493.63;5095306;28;20692;-66
2023/05/01 08:22:01;;;;;;;5.90;4.07;;;22.90;31.30;;;27.75;22.01;101483.91;5096009;28;20204;-65
2023/05/01 08:24:28;;;;;;;4.90;3.43;;;23.10;30.90;;;27.85;20.95;101485.81;5112506;28;20215;-62
2023/05/01 08:26:56;;;;;;;5.07;3.47;;;23.20;30.10;;;28.04;21.54;101492.31;5080745;28;20609;-63
2023/05/01 08:29:23;;;;;;;6.17;3.60;;;23.40;31.00;;;28.14;21.12;101482.31;5095752;28;20195;-65
2023/05/01 08:31:52;;;;;;;4.13;3.33;;;23.50;29.90;;;28.28;21.05;101487.16;5089024;28;20196;-65
2023/05/01 08:34:21;;;;;;;6.67;3.53;;;23.60;29.80;;;28.45;20.53;101483.06;5102453;28;20212;-63
2023/05/01 08:36:48;;;;;;;4.60;3.40;;;23.70;29.20;;;28.28;20.87;101481.72;5095080;28;20665;-64
2023/05/01 08:39:15;;;;;;;4.27;3.00;;;23.80;29.20;;;28.64;21.35;101477.88;5095130;28;20203;-64
2023/05/01 08:41:46;;;;;;;6.23;3.17;;;24.00;30.00;;;29.21;20.20;101480.09;5096045;28;20192;-63
2023/05/01 08:44:15;;;;;;;4.63;3.60;;;24.10;29.30;;;29.45;20.54;101479.09;5110399;28;20565;-63
2023/05/01 08:46:49;;;;;;;7.57;3.00;;;24.40;29.70;;;29.74;20.15;101479.16;5080520;28;20206;-62
2023/05/01 08:49:20;;;;;;;4.20;3.10;;;24.60;29.30;;;29.95;19.36;101482.56;5115276;28;20229;-63
2023/05/01 08:51:52;;;;;;;4.63;3.30;;;24.70;28.00;;;29.91;19.51;101476.88;5114780;28;20183;-64
2023/05/01 08:54:20;;;;;;;5.33;3.30;;;24.80;28.30;;;29.90;19.78;101472.56;5059436;28;20232;-63
2023/05/01 08:56:50;;;;;;;3.27;2.97;;;24.90;28.50;;;29.87;19.59;101472.31;5056240;28;20209;-64
2023/05/01 08:59:19;;;;;;;3.53;3.07;;;25.10;27.90;;;29.68;19.42;101468.63;5076461;28;20230;-64
2023/05/01 09:01:47;;;;;;;4.47;3.30;;;25.10;28.20;;;29.68;19.91;101457.78;5092785;28;20314;-65
2023/05/01 09:04:16;;;;;;;6.30;3.80;;;25.10;28.50;;;29.80;20.50;101450.09;5076012;28;20227;-63
2023/05/01 09:06:44;;;;;;;4.90;3.43;;;25.10;28.90;;;29.96;19.60;101454.28;5094534;28;20242;-64
2023/05/01 09:09:12;;;;;;;5.40;3.67;;;25.20;28.50;;;29.34;19.59;101453.13;5094596;28;20257;-63
2023/05/01 09:11:39;;;;;;;6.83;3.20;;;25.00;28.00;;;29.23;20.38;101448.88;5073074;28;20196;-63
2023/05/01 09:14:07;;;;;;;3.60;3.30;;;24.90;28.70;;;29.44;19.73;101450.38;5104188;28;20223;-65
2023/05/01 09:16:35;;;;;;;8.33;4.13;;;24.90;28.10;;;29.37;20.00;101441.72;5075431;28;20193;-64
2023/05/01 09:19:02;;;;;;;4.47;3.20;;;24.80;28.30;;;29.07;20.24;101447.34;5059669;28;20204;-65
2023/05/01 09:21:30;;;;;;;5.73;3.37;;;24.70;28.50;;;28.74;20.40;101453.47;5105659;28;20208;-64
2023/05/01 09:23:59;;;;;;;4.90;3.50;;;24.60;28.30;;;28.65;20.47;101449.69;5113640;28;20613;-65
2023/05/01 09:26:26;;;;;;;6.93;3.73;;;24.40;28.40;;;28.67;20.71;101453.75;5095975;28;20222;-63
2023/05/01 09:28:57;;;;;;;4.63;3.37;;;24.30;28.90;;;28.93;20.50;101434.66;5100098;28;20196;-64
2023/05/01 09:31:31;;;;;;;3.63;3.30;;;24.40;28.90;;;29.21;20.23;101452.97;5087042;28;20242;-62
2023/05/01 09:34:01;;;;;;;4.27;3.53;;;24.50;29.10;;;29.24;20.09;101447.78;5093710;28;20188;-64
2023/05/01 09:36:31;;;;;;;3.97;3.07;;;24.50;28.60;;;29.46;20.15;101450.88;5093883;28;20189;-64
2023/05/01 09:39:01;;;;;;;5.33;3.60;;;24.60;28.70;;;29.69;19.78;101443.13;5093540;28;20660;-65
2023/05/01 09:41:31;;;;;;;5.37;3.47;;;24.80;28.80;;;30.06;19.66;101443.34;5080587;28;20207;-66
2023/05/01 09:44:00;;;;;;;3.73;2.97;;;24.90;28.90;;;30.02;20.14;101437.66;5084243;28;20184;-66
2023/05/01 09:46:42;;;;;;;3.80;3.47;;;25.00;28.70;;;30.30;19.48;101449.63;5086633;28;20256;-63
2023/05/01 09:49:09;;;;;;;4.33;3.23;;;25.20;28.80;;;30.46;18.78;101448.38;5113847;28;20180;-64
2023/05/01 09:51:36;;;;;;;4.63;3.87;;;25.30;28.10;;;30.57;18.88;101438.19;5113895;28;20191;-64
2023/05/01 09:54:17;;;;;;;10.20;3.30;;;25.50;28.30;;;30.81;18.79;101438.94;5089931;28;20244;-63
2023/05/01 09:56:47;;;;;;;5.37;3.50;;;25.60;28.10;;;30.77;18.80;101438.75;5073111;28;20654;-63
2023/05/01 09:59:17;;;;;;;5.90;3.80;;;25.60;27.80;;;30.60;19.55;101435.69;5055464;28;20522;-63
2023/05/01 10:01:48;;;;;;;4.50;3.87;;;25.70;28.10;;;30.49;19.34;101431.50;5080923;28;20292;-64
2023/05/01 10:04:15;;;;;;;3.80;3.50;;;25.70;27.90;;;30.58;18.98;101428.94;5075090;28;20697;-64
2023/05/01 10:06:42;;;;;;;4.20;3.23;;;25.70;27.90;;;30.79;19.53;101420.22;5097965;28;20192;-64
2023/05/01 10:09:16;;;;;;;5.43;3.73;;;25.80;28.40;;;30.87;19.02;101426.09;5109319;28;20207;-63
2023/05/01 10:11:47;;;;;;;5.50;3.93;;;25.80;28.00;;;31.06;18.91;101427.78;5093519;28;20185;-65
2023/05/01 10:14:15;;;;;;;3.70;3.40;;;25.90;28.30;;;31.22;19.38;101421.00;5093193;28;20224;-64
2023/05/01 10:16:42;;;;;;;4.10;3.30;;;26.00;28.30;;;31.40;18.53;101419.38;5093357;28;20189;-66
2023/05/01 10:19:09;;;;;;;4.43;3.03;;;26.20;27.80;;;31.65;18.84;101410.78;5108871;28;20194;-63
2023/05/01 10:21:37;;;;;;;6.47;3.97;;;26.30;27.60;;;31.70;18.31;101409.91;5113674;28;20297;-64